createdAt,value
2017-12-21T00:00:47.559Z,5.60
2017-12-21T00:03:15.085Z,5.60
2017-12-21T00:05:42.609Z,5.50
2017-12-21T00:08:10.880Z,5.60
2017-12-21T00:10:38.368Z,5.50
2017-12-21T00:13:05.877Z,5.50
2017-12-21T00:15:34.151Z,5.50
2017-12-21T00:18:02.120Z,5.50
2017-12-21T00:20:30.540Z,5.50
2017-12-21T00:22:58.909Z,5.50
2017-12-21T00:25:26.400Z,5.50
2017-12-21T00:27:54.296Z,5.40
2017-12-21T00:30:22.586Z,5.40
2017-12-21T00:32:50.501Z,5.40
2017-12-21T00:35:17.992Z,5.50
2017-12-21T00:37:45.496Z,5.50
2017-12-21T00:40:13.034Z,5.50
2017-12-21T00:42:40.549Z,5.50
2017-12-21T00:45:09.233Z,5.50
2017-12-21T00:47:36.756Z,5.50
2017-12-21T00:50:05.040Z,5.40
2017-12-21T00:52:32.972Z,5.40
2017-12-21T00:55:01.271Z,5.40
2017-12-21T00:57:28.794Z,5.40
2017-12-21T00:59:56.298Z,5.40
2017-12-21T01:02:23.804Z,5.40
2017-12-21T01:04:52.101Z,5.40
2017-12-21T01:07:20.870Z,5.50
2017-12-21T01:09:48.909Z,5.40
2017-12-21T01:12:16.977Z,5.40
2017-12-21T01:14:45.018Z,5.50
2017-12-21T01:17:13.079Z,5.50
2017-12-21T01:19:41.100Z,5.50
2017-12-21T01:22:08.712Z,5.50
2017-12-21T01:24:36.228Z,5.50
2017-12-21T01:27:03.747Z,5.50
2017-12-21T01:29:31.283Z,5.60
2017-12-21T01:31:58.796Z,5.50
2017-12-21T01:34:26.304Z,5.50
2017-12-21T01:36:54.582Z,5.60
2017-12-21T01:39:22.547Z,5.60
2017-12-21T01:41:50.124Z,5.60
2017-12-21T01:44:17.616Z,5.60
2017-12-21T01:46:45.120Z,5.60
2017-12-21T01:49:13.389Z,5.50
2017-12-21T01:51:40.923Z,5.60
2017-12-21T01:54:08.421Z,5.60
2017-12-21T01:56:37.428Z,5.60
2017-12-21T01:59:06.083Z,5.60
2017-12-21T02:01:33.976Z,5.70
2017-12-21T02:04:02.256Z,5.80
2017-12-21T02:06:30.552Z,5.80
2017-12-21T02:08:58.432Z,5.80
2017-12-21T02:13:55.095Z,5.80
2017-12-21T02:16:23.384Z,5.70
2017-12-21T02:18:51.280Z,5.70
2017-12-21T02:23:48.303Z,5.70
2017-12-21T02:26:16.192Z,5.70
2017-12-21T02:31:13.285Z,5.70
2017-12-21T02:33:41.581Z,5.70
2017-12-21T02:38:37.876Z,5.70
2017-12-21T02:43:34.197Z,5.80
2017-12-21T02:46:02.104Z,5.80
2017-12-21T02:48:30.752Z,5.90
2017-12-21T02:50:58.276Z,5.90
2017-12-21T02:53:26.555Z,5.90
2017-12-21T02:55:55.613Z,5.90
2017-12-21T02:58:23.112Z,5.90
2017-12-21T03:00:51.016Z,6.00
2017-12-21T03:03:19.761Z,6.00
2017-12-21T03:05:48.204Z,6.10
2017-12-21T03:08:18.117Z,6.10
2017-12-21T03:10:46.561Z,6.00
2017-12-21T03:13:14.628Z,6.00
2017-12-21T03:15:43.804Z,6.10
2017-12-21T03:20:41.188Z,6.10
2017-12-21T03:23:09.681Z,6.10
2017-12-21T03:25:37.745Z,6.10
2017-12-21T03:28:05.736Z,6.00
2017-12-21T03:35:32.288Z,6.10
2017-12-21T03:38:00.210Z,6.10
2017-12-21T03:40:28.492Z,6.10
2017-12-21T03:42:56.785Z,6.10
2017-12-21T03:45:25.831Z,6.10
2017-12-21T03:47:54.112Z,6.00
2017-12-21T03:52:50.420Z,5.90
2017-12-21T03:55:18.324Z,5.90
2017-12-21T03:57:46.620Z,5.90
2017-12-21T04:00:14.884Z,5.90
2017-12-21T04:10:09.364Z,5.80
2017-12-21T04:12:38.013Z,5.80
2017-12-21T04:15:05.544Z,5.80
2017-12-21T04:17:34.305Z,5.90
2017-12-21T04:20:02.280Z,5.90
2017-12-21T04:22:30.208Z,5.90
2017-12-21T04:24:58.491Z,5.90
2017-12-21T04:29:55.233Z,5.90
2017-12-21T04:34:52.624Z,5.90
2017-12-21T04:37:21.817Z,5.80
2017-12-21T04:44:48.529Z,5.90
2017-12-21T04:47:16.989Z,5.90
2017-12-21T04:54:43.760Z,5.90
2017-12-21T04:59:42.094Z,5.90
2017-12-21T05:02:10.145Z,5.90
2017-12-21T05:07:08.300Z,5.90
2017-12-21T05:09:36.749Z,5.90
2017-12-21T05:12:04.344Z,6.00
2017-12-21T05:14:32.972Z,5.90
2017-12-21T05:19:29.652Z,5.90
2017-12-21T05:21:57.932Z,5.90
2017-12-21T05:24:25.840Z,6.00
2017-12-21T05:29:22.108Z,5.90
2017-12-21T05:34:18.780Z,6.00
2017-12-21T05:36:46.677Z,6.00
2017-12-21T05:41:42.948Z,6.10
2017-12-21T05:44:11.228Z,6.10
2017-12-21T05:49:07.516Z,6.00
2017-12-21T05:51:35.776Z,6.10
2017-12-21T05:54:04.045Z,6.10
2017-12-21T05:56:32.424Z,6.10
2017-12-21T05:59:00.308Z,6.20
2017-12-21T06:01:28.575Z,6.20
2017-12-21T06:03:56.856Z,6.20
2017-12-21T06:06:25.132Z,6.20
2017-12-21T06:08:53.871Z,6.20
2017-12-21T06:11:22.116Z,6.30
2017-12-21T06:13:49.616Z,6.30
2017-12-21T06:16:17.901Z,6.30
2017-12-21T06:18:46.165Z,6.30
2017-12-21T06:21:14.452Z,6.30
2017-12-21T06:23:43.456Z,6.30
2017-12-21T06:28:40.864Z,6.30
2017-12-21T06:31:09.128Z,6.30
2017-12-21T06:33:37.420Z,6.30
2017-12-21T06:36:05.676Z,6.40
2017-12-21T06:38:34.308Z,6.30
2017-12-21T06:41:03.049Z,6.30
2017-12-21T06:45:59.345Z,6.40
2017-12-21T06:48:27.709Z,6.30
2017-12-21T06:50:56.162Z,6.30
2017-12-21T06:55:53.671Z,6.40
2017-12-21T06:58:22.125Z,6.30
2017-12-21T07:00:50.642Z,6.30
2017-12-21T07:03:18.805Z,6.30
2017-12-21T07:05:47.293Z,6.30
2017-12-21T07:08:15.361Z,6.30
2017-12-21T07:10:44.974Z,6.30
2017-12-21T07:13:13.040Z,6.30
2017-12-21T07:15:41.493Z,6.20
2017-12-21T07:18:09.601Z,6.20
2017-12-21T07:20:38.501Z,6.30
2017-12-21T07:23:06.706Z,6.30
2017-12-21T07:25:36.285Z,6.20
2017-12-21T07:28:04.442Z,6.20
2017-12-21T07:30:32.612Z,6.20
2017-12-21T07:33:00.694Z,6.10
2017-12-21T07:35:29.992Z,6.20
2017-12-21T07:40:27.484Z,6.20
2017-12-21T07:42:55.641Z,6.20
2017-12-21T07:45:24.221Z,6.20
2017-12-21T07:47:52.281Z,6.20
2017-12-21T07:55:19.175Z,6.20
2017-12-21T08:00:19.033Z,6.20
2017-12-21T08:02:48.230Z,6.20
2017-12-21T08:05:16.393Z,6.20
2017-12-21T08:07:44.568Z,6.30
2017-12-21T08:10:12.635Z,6.30
2017-12-21T08:12:40.798Z,6.30
2017-12-21T08:15:09.286Z,6.40
2017-12-21T08:17:37.369Z,6.40
2017-12-21T08:20:05.425Z,6.40
2017-12-21T08:25:03.612Z,6.40
2017-12-21T08:27:31.681Z,6.40
2017-12-21T08:30:00.577Z,6.40
2017-12-21T08:32:28.649Z,6.40
2017-12-21T08:34:57.865Z,6.40
2017-12-21T08:37:26.329Z,6.50
2017-12-21T08:42:24.606Z,6.50
2017-12-21T08:44:52.697Z,6.50
2017-12-21T08:47:21.995Z,6.50
2017-12-21T08:49:50.164Z,6.50
2017-12-21T08:52:19.460Z,6.50
2017-12-21T08:54:47.549Z,6.50
2017-12-21T08:59:45.015Z,6.50
2017-12-21T09:02:13.190Z,6.50
2017-12-21T09:07:10.665Z,6.40
2017-12-21T09:09:39.229Z,6.40
2017-12-21T09:12:07.321Z,6.50
2017-12-21T09:14:35.392Z,6.50
2017-12-21T09:17:03.461Z,6.60
2017-12-21T09:22:02.013Z,6.70
2017-12-21T09:24:30.065Z,6.60
2017-12-21T09:26:59.341Z,6.70
2017-12-21T09:29:27.508Z,6.70
2017-12-21T09:31:55.689Z,6.70
2017-12-21T09:34:23.757Z,6.70
2017-12-21T09:39:21.165Z,6.70
2017-12-21T09:41:50.352Z,6.80
2017-12-21T09:44:18.505Z,6.90
2017-12-21T09:46:46.569Z,7.00
2017-12-21T09:51:45.101Z,7.10
2017-12-21T09:56:43.722Z,7.10
2017-12-21T09:59:11.850Z,7.10
2017-12-21T10:01:39.900Z,7.10
2017-12-21T10:04:07.989Z,7.10
2017-12-21T10:06:36.168Z,7.10
2017-12-21T10:14:02.953Z,7.00
2017-12-21T10:16:31.113Z,7.10
2017-12-21T10:18:59.193Z,7.20
2017-12-21T10:21:27.360Z,7.20
2017-12-21T10:23:56.969Z,7.30
2017-12-21T10:28:54.553Z,7.30
2017-12-21T10:31:22.721Z,7.40
2017-12-21T10:33:50.899Z,7.40
2017-12-21T10:36:20.473Z,7.40
2017-12-21T10:38:48.583Z,7.40
2017-12-21T10:41:16.646Z,7.30
2017-12-21T10:43:44.825Z,7.40
2017-12-21T10:46:12.897Z,7.30
2017-12-21T10:48:41.785Z,7.40
2017-12-21T11:03:36.631Z,7.40
2017-12-21T11:06:04.746Z,7.50
2017-12-21T11:08:32.826Z,7.40
2017-12-21T11:11:00.989Z,7.40
2017-12-21T11:13:29.057Z,7.50
2017-12-21T11:15:58.265Z,7.50
2017-12-21T11:25:54.862Z,7.50
2017-12-21T11:28:23.136Z,7.50
2017-12-21T11:30:51.601Z,7.50
2017-12-21T11:33:19.657Z,7.50
2017-12-21T11:35:47.750Z,7.40
2017-12-21T11:38:15.937Z,7.50
2017-12-21T11:40:43.992Z,7.50
2017-12-21T11:43:13.625Z,7.50
2017-12-21T11:45:42.445Z,7.50
2017-12-21T11:50:41.009Z,7.60
2017-12-21T11:53:10.590Z,7.70
2017-12-21T11:55:39.797Z,7.70
2017-12-21T11:58:07.869Z,7.60
2017-12-21T12:00:36.040Z,7.70
2017-12-21T12:03:04.118Z,7.70
2017-12-21T12:05:32.165Z,7.70
2017-12-21T12:08:00.233Z,7.70
2017-12-21T12:10:28.298Z,7.80
2017-12-21T12:15:26.529Z,7.80
2017-12-21T12:20:23.925Z,7.80
2017-12-21T12:22:53.172Z,7.80
2017-12-21T12:27:50.671Z,7.90
2017-12-21T12:30:19.865Z,7.90
2017-12-21T12:32:48.337Z,7.80
2017-12-21T12:35:17.241Z,7.80
2017-12-21T12:37:46.305Z,7.90
2017-12-21T12:40:14.818Z,7.90
2017-12-21T12:42:43.641Z,7.80
2017-12-21T12:45:11.708Z,7.80
2017-12-21T12:47:41.277Z,7.90
2017-12-21T12:50:09.745Z,7.90
2017-12-21T12:55:08.368Z,7.90
2017-12-21T12:57:36.445Z,7.90
2017-12-21T13:02:33.925Z,7.80
2017-12-21T13:05:01.990Z,7.80
2017-12-21T13:07:30.168Z,7.90
2017-12-21T13:09:58.995Z,7.90
2017-12-21T13:12:28.269Z,8.00
2017-12-21T13:14:56.289Z,8.00
2017-12-21T13:19:54.453Z,8.00
2017-12-21T13:24:53.052Z,8.00
2017-12-21T13:27:21.189Z,8.10
2017-12-21T13:29:49.257Z,8.10
2017-12-21T13:32:17.334Z,8.10
2017-12-21T13:37:14.909Z,8.00
2017-12-21T13:39:43.084Z,8.10
2017-12-21T13:42:12.387Z,8.10
2017-12-21T13:44:40.557Z,8.10
2017-12-21T13:47:08.633Z,8.10
2017-12-21T13:49:37.829Z,8.20
2017-12-21T13:52:06.001Z,8.20
2017-12-21T13:54:35.572Z,8.30
2017-12-21T13:57:04.027Z,8.30
2017-12-21T13:59:34.276Z,8.30
2017-12-21T14:04:32.805Z,8.30
2017-12-21T14:07:00.881Z,8.30
2017-12-21T14:09:29.778Z,8.30
2017-12-21T14:11:57.846Z,8.20
2017-12-21T14:14:27.071Z,8.30
2017-12-21T14:16:55.547Z,8.30
2017-12-21T14:19:24.009Z,8.30
2017-12-21T14:21:52.057Z,8.30
2017-12-21T14:24:20.565Z,8.20
2017-12-21T14:26:48.637Z,8.20
2017-12-21T14:29:16.809Z,8.20
2017-12-21T14:34:14.945Z,8.30
2017-12-21T14:36:43.070Z,8.20
2017-12-21T14:44:10.548Z,8.30
2017-12-21T14:46:40.113Z,8.30
2017-12-21T14:49:08.245Z,8.30
2017-12-21T14:51:36.332Z,8.30
2017-12-21T14:56:33.892Z,8.30
2017-12-21T14:59:01.969Z,8.30
2017-12-21T15:08:58.653Z,8.20
2017-12-21T15:11:26.721Z,8.20
2017-12-21T15:13:54.769Z,8.20
2017-12-21T15:18:53.296Z,8.20
2017-12-21T15:23:51.493Z,8.00
2017-12-21T15:26:20.385Z,8.10
2017-12-21T15:28:49.590Z,8.10
2017-12-21T15:31:18.045Z,8.10
2017-12-21T15:33:46.134Z,8.10
2017-12-21T15:36:14.202Z,8.10
2017-12-21T15:38:43.510Z,8.10
2017-12-21T15:41:11.681Z,8.10
2017-12-21T15:43:40.877Z,8.00
2017-12-21T15:46:08.921Z,8.00
2017-12-21T15:48:37.393Z,7.90
2017-12-21T15:51:06.222Z,7.80
2017-12-21T15:53:34.273Z,7.80
2017-12-21T15:56:02.357Z,7.70
2017-12-21T15:58:30.413Z,7.70
2017-12-21T16:00:58.473Z,7.60
2017-12-21T16:03:27.306Z,7.70
2017-12-21T16:08:25.373Z,7.70
2017-12-21T16:10:52.904Z,7.70
2017-12-21T16:13:20.820Z,7.70
2017-12-21T16:18:17.065Z,7.70
2017-12-21T16:20:45.069Z,7.70
2017-12-21T16:23:14.289Z,7.70
2017-12-21T16:25:42.340Z,7.70
2017-12-21T16:30:39.737Z,7.70
2017-12-21T16:33:08.197Z,7.70
2017-12-21T16:35:36.272Z,7.70
2017-12-21T16:38:04.329Z,7.60
2017-12-21T16:40:32.412Z,7.60
2017-12-21T16:43:00.469Z,7.60
2017-12-21T16:45:28.527Z,7.60
2017-12-21T16:47:56.593Z,7.60
2017-12-21T16:50:24.653Z,7.60
2017-12-21T16:52:53.502Z,7.60
2017-12-21T16:55:21.569Z,7.60
2017-12-21T16:57:51.149Z,7.60
2017-12-21T17:00:19.233Z,7.50
2017-12-21T17:02:47.691Z,7.50
2017-12-21T17:05:15.745Z,7.50
2017-12-21T17:07:44.628Z,7.50
2017-12-21T17:10:13.045Z,7.50
2017-12-21T17:12:42.258Z,7.40
2017-12-21T17:15:10.321Z,7.50
2017-12-21T17:17:38.772Z,7.50
2017-12-21T17:22:37.676Z,7.50
2017-12-21T17:25:05.789Z,7.50
2017-12-21T17:27:34.224Z,7.50
2017-12-21T17:30:03.813Z,7.50
2017-12-21T17:35:01.958Z,7.60
2017-12-21T17:37:30.413Z,7.70
2017-12-21T17:39:58.469Z,7.70
2017-12-21T17:42:27.310Z,7.60
2017-12-21T17:44:55.373Z,7.60
2017-12-21T17:47:23.439Z,7.60
2017-12-21T17:49:51.501Z,7.60
2017-12-21T17:52:19.585Z,7.60
2017-12-21T17:54:48.409Z,7.60
2017-12-21T17:57:17.985Z,7.60
2017-12-21T17:59:46.045Z,7.60
2017-12-21T18:02:14.033Z,7.50
2017-12-21T18:04:42.300Z,7.50
2017-12-21T18:07:10.620Z,7.50
2017-12-21T18:09:39.361Z,7.50
2017-12-21T18:12:08.656Z,7.50
2017-12-21T18:14:36.692Z,7.50
2017-12-21T18:17:04.785Z,7.50
2017-12-21T18:19:32.850Z,7.50
2017-12-21T18:22:00.902Z,7.50
2017-12-21T18:24:28.959Z,7.60
2017-12-21T18:26:58.541Z,7.60
2017-12-21T18:29:27.785Z,7.60
2017-12-21T18:31:55.810Z,7.60
2017-12-21T18:34:24.163Z,7.50
2017-12-21T18:36:51.677Z,7.50
2017-12-21T18:39:19.968Z,7.40
2017-12-21T18:41:47.485Z,7.40
2017-12-21T18:46:43.887Z,7.40
2017-12-21T18:49:12.156Z,7.40
2017-12-21T18:51:40.065Z,7.40
2017-12-21T18:54:08.340Z,7.40
2017-12-21T18:56:36.615Z,7.50
2017-12-21T18:59:04.884Z,7.40
2017-12-21T19:01:32.777Z,7.40
2017-12-21T19:04:01.085Z,7.40
2017-12-21T19:06:29.368Z,7.40
2017-12-21T19:08:58.004Z,7.30
2017-12-21T19:11:26.644Z,7.30
2017-12-21T19:13:54.967Z,7.30
2017-12-21T19:16:22.444Z,7.30
2017-12-21T19:18:50.452Z,7.40
2017-12-21T19:21:18.759Z,7.40
2017-12-21T19:23:46.979Z,7.40
2017-12-21T19:26:15.249Z,7.40
2017-12-21T19:28:43.621Z,7.40
2017-12-21T19:31:12.069Z,7.40
2017-12-21T19:33:40.905Z,7.30
2017-12-21T19:36:09.358Z,7.40
2017-12-21T19:38:38.564Z,7.30
2017-12-21T19:41:06.617Z,7.30
2017-12-21T19:43:35.813Z,7.40
2017-12-21T19:46:03.884Z,7.30
2017-12-21T19:48:31.964Z,7.30
2017-12-21T19:51:01.508Z,7.30
2017-12-21T19:53:29.981Z,3.50
2017-12-21T19:58:28.129Z,7.40
2017-12-21T20:00:57.007Z,7.40
2017-12-21T20:03:25.428Z,7.50
2017-12-21T20:05:54.273Z,7.60
2017-12-21T20:08:23.117Z,7.60
2017-12-21T20:10:51.574Z,7.60
2017-12-21T20:13:19.661Z,7.60
2017-12-21T20:15:47.773Z,7.60
2017-12-21T20:18:15.948Z,7.60
2017-12-21T20:20:44.412Z,7.50
2017-12-21T20:23:12.472Z,7.60
2017-12-21T20:25:40.549Z,7.60
2017-12-21T20:28:08.633Z,7.60
2017-12-21T20:30:36.649Z,7.60
2017-12-21T20:33:04.156Z,7.50
2017-12-21T20:35:33.196Z,7.40
2017-12-21T20:38:00.759Z,7.40
2017-12-21T20:40:28.653Z,7.40
2017-12-21T20:42:56.560Z,7.40
2017-12-21T20:45:24.856Z,7.50
2017-12-21T20:47:53.136Z,7.50
2017-12-21T20:50:21.433Z,7.50
2017-12-21T20:52:49.465Z,7.60
2017-12-21T20:57:46.611Z,7.50
2017-12-21T21:00:14.620Z,7.40
2017-12-21T21:02:42.164Z,7.50
2017-12-21T21:05:11.244Z,7.60
2017-12-21T21:07:39.540Z,7.50
2017-12-21T21:10:07.206Z,7.50
2017-12-21T21:12:35.193Z,7.40
2017-12-21T21:15:03.896Z,7.40
2017-12-21T21:17:31.621Z,7.40
2017-12-21T21:19:59.880Z,7.50
2017-12-21T21:22:28.621Z,7.60
2017-12-21T21:24:58.204Z,7.50
2017-12-21T21:27:27.033Z,7.50
2017-12-21T21:29:55.059Z,7.40
2017-12-21T21:32:22.964Z,7.40
2017-12-21T21:34:50.921Z,7.40
2017-12-21T21:37:18.868Z,7.30
2017-12-21T21:39:46.880Z,7.30
2017-12-21T21:42:15.284Z,7.40
2017-12-21T21:49:41.541Z,7.40
2017-12-21T21:52:09.609Z,7.40
2017-12-21T21:54:38.366Z,7.40
2017-12-21T21:57:06.938Z,7.50
2017-12-21T21:59:35.397Z,7.50
2017-12-21T22:02:04.212Z,7.40
2017-12-21T22:04:32.485Z,7.40
2017-12-21T22:07:02.119Z,7.40
2017-12-21T22:09:30.683Z,7.40
2017-12-21T22:11:58.883Z,7.30
2017-12-21T22:14:27.666Z,7.30
2017-12-21T22:16:55.721Z,7.30
2017-12-21T22:19:23.807Z,7.40
2017-12-21T22:21:51.862Z,7.30
2017-12-21T22:24:19.920Z,7.40
2017-12-21T22:26:47.989Z,7.30
2017-12-21T22:29:16.041Z,7.40
2017-12-21T22:31:44.514Z,7.40
2017-12-21T22:34:13.342Z,7.40
2017-12-21T22:36:41.438Z,7.40
2017-12-21T22:39:09.510Z,7.40
2017-12-21T22:41:38.328Z,7.40
2017-12-21T22:44:06.405Z,7.30
2017-12-21T22:46:34.488Z,7.40
2017-12-21T22:49:03.321Z,7.50
2017-12-21T22:51:31.369Z,7.50
2017-12-21T22:53:59.441Z,7.50
2017-12-21T22:56:27.949Z,7.50
2017-12-21T22:58:56.025Z,7.50
2017-12-21T23:01:24.107Z,7.60
2017-12-21T23:03:52.461Z,7.50
2017-12-21T23:06:20.368Z,7.60
2017-12-21T23:08:47.869Z,7.60
2017-12-21T23:11:15.404Z,7.70
2017-12-21T23:13:43.686Z,7.70
2017-12-21T23:16:11.974Z,7.70
2017-12-21T23:18:40.013Z,7.70
2017-12-21T23:21:08.021Z,7.80
2017-12-21T23:23:36.840Z,8.10
2017-12-21T23:26:06.050Z,7.70
2017-12-21T23:28:34.113Z,7.80
2017-12-21T23:31:02.168Z,7.90
2017-12-21T23:33:30.241Z,7.90
2017-12-21T23:35:58.293Z,7.90
2017-12-21T23:38:27.133Z,8.00
2017-12-21T23:40:55.181Z,8.00
2017-12-21T23:43:23.605Z,8.10
2017-12-21T23:45:51.669Z,8.10
2017-12-21T23:48:19.717Z,8.20
2017-12-21T23:50:47.764Z,8.20
2017-12-21T23:53:15.825Z,8.20
2017-12-21T23:55:44.657Z,8.20
2017-12-21T23:58:12.709Z,8.20
